Time;durP1;ratioP1;P1;durP2;ratioP2;P2;SDS_P1;SDS_P2;PMS_P1;PMS_P2;Temp;Humidity;BMP_temperature;BMP_pressure;BME280_temperature;BME280_humidity;BME280_pressure;Samples;Min_cycle;Max_cycle;Signal;HPM_P1;HPM_P2
2024/01/19 00:01:55;;;;;;;22.73;14.32;;;;;;;8.74;100.00;98729.72;4955271;29;20019;-36
2024/01/19 00:04:20;;;;;;;24.98;14.57;;;;;;;8.77;100.00;98733.78;4955021;29;20046;-36
2024/01/19 00:06:46;;;;;;;26.77;16.05;;;;;;;8.83;100.00;98734.75;4955306;29;20019;-36
2024/01/19 00:09:13;;;;;;;26.58;15.43;;;;;;;8.71;100.00;98737.28;4955062;29;20039;-37
2024/01/19 00:11:38;;;;;;;24.38;14.95;;;;;;;8.76;100.00;98738.28;4955279;28;20046;-39
2024/01/19 00:14:03;;;;;;;22.90;14.30;;;;;;;8.79;100.00;98729.88;4955128;29;20138;-38
2024/01/19 00:16:29;;;;;;;22.50;14.55;;;;;;;8.76;100.00;98738.28;4955021;29;20051;-35
2024/01/19 00:18:54;;;;;;;24.13;14.93;;;;;;;8.78;100.00;98732.75;4954783;29;20046;-38
2024/01/19 00:21:20;;;;;;;25.42;14.52;;;;;;;8.83;100.00;98740.06;4955201;29;20536;-37
2024/01/19 00:23:45;;;;;;;22.55;13.77;;;;;;;8.88;100.00;98722.47;4954921;29;20024;-37
2024/01/19 00:26:11;;;;;;;20.67;12.23;;;;;;;8.81;100.00;98695.16;4954423;29;20575;-38
2024/01/19 00:28:36;;;;;;;19.88;12.35;;;;;;;9.02;100.00;98685.19;4954941;29;20031;-37
2024/01/19 00:31:01;;;;;;;20.65;12.05;;;;;;;9.19;100.00;98678.28;4954637;29;20532;-35
2024/01/19 00:33:27;;;;;;;21.50;12.13;;;;;;;9.31;100.00;98673.03;4954640;29;20035;-36
2024/01/19 00:35:52;;;;;;;20.13;12.02;;;;;;;9.12;100.00;98673.06;4953984;29;20050;-35
2024/01/19 00:38:17;;;;;;;19.52;11.45;;;;;;;9.24;100.00;98669.66;4954305;29;20035;-38
2024/01/19 00:40:44;;;;;;;19.63;11.60;;;;;;;9.14;100.00;98652.41;4954223;29;20431;-38
2024/01/19 00:43:09;;;;;;;19.95;10.57;;;;;;;9.23;100.00;98642.28;4954194;29;20368;-35
2024/01/19 00:45:35;;;;;;;21.00;11.27;;;;;;;9.43;100.00;98643.94;4937284;29;20041;-37
2024/01/19 00:48:01;;;;;;;18.52;10.98;;;;;;;9.57;100.00;98640.06;4954278;29;20475;-37
2024/01/19 00:50:26;;;;;;;14.95;10.27;;;;;;;9.31;100.00;98649.97;4954361;29;20459;-38
2024/01/19 00:52:51;;;;;;;19.25;11.68;;;;;;;10.05;99.97;98663.16;4954230;29;20105;-35
2024/01/19 00:55:17;;;;;;;20.95;12.73;;;;;;;9.86;100.00;98654.41;4936672;29;20101;-36
2024/01/19 00:57:42;;;;;;;20.52;12.30;;;;;;;9.82;100.00;98636.47;4954286;29;20031;-35
2024/01/19 01:00:09;;;;;;;20.10;12.10;;;;;;;9.98;100.00;98646.47;4954224;29;20023;-38
2024/01/19 01:02:34;;;;;;;19.70;12.13;;;;;;;9.97;100.00;98631.56;4953964;29;20031;-38
2024/01/19 01:04:59;;;;;;;19.40;11.77;;;;;;;9.99;100.00;98608.22;4953770;29;20094;-38
2024/01/19 01:07:25;;;;;;;18.20;11.32;;;;;;;10.10;99.73;98617.25;4953936;29;20035;-39
2024/01/19 01:09:50;;;;;;;17.65;11.38;;;;;;;9.98;100.00;98618.03;4953652;29;20027;-38
2024/01/19 01:12:16;;;;;;;23.25;11.73;;;;;;;9.93;99.89;98614.44;4953737;29;20089;-37
2024/01/19 01:14:41;;;;;;;19.65;11.60;;;;;;;10.03;99.44;98616.53;4953982;29;20123;-39
2024/01/19 01:17:07;;;;;;;21.27;12.82;;;;;;;10.06;99.92;98614.25;4953986;29;20027;-26
2024/01/19 01:19:32;;;;;;;17.25;11.38;;;;;;;9.85;100.00;98620.09;4954027;29;20023;-25
2024/01/19 01:21:58;;;;;;;19.55;11.88;;;;;;;9.81;100.00;98619.72;4954035;29;20384;-25
2024/01/19 01:24:24;;;;;;;18.98;11.57;;;;;;;9.53;100.00;98612.31;4953436;28;20031;-26
2024/01/19 01:26:49;;;;;;;18.33;11.35;;;;;;;9.62;100.00;98618.97;4953088;29;20034;-26
2024/01/19 01:29:14;;;;;;;19.45;12.05;;;;;;;9.86;100.00;98621.69;4953978;29;20035;-26
2024/01/19 01:31:40;;;;;;;20.55;12.15;;;;;;;10.07;100.00;98621.19;4953593;29;20047;-26
2024/01/19 01:34:05;;;;;;;21.02;12.05;;;;;;;9.75;100.00;98629.41;4953643;29;20420;-26
2024/01/19 01:36:31;;;;;;;17.88;11.13;;;;;;;9.79;100.00;98629.78;4953593;29;20042;-26
2024/01/19 01:38:56;;;;;;;19.90;12.32;;;;;;;9.76;100.00;98627.56;4953716;29;20444;-26
2024/01/19 01:41:21;;;;;;;22.90;12.52;;;;;;;9.84;100.00;98632.53;4953673;29;20067;-26
2024/01/19 01:43:47;;;;;;;18.35;10.98;;;;;;;9.48;100.00;98618.31;4953936;29;20023;-26
2024/01/19 01:46:12;;;;;;;17.55;11.40;;;;;;;9.61;100.00;98600.59;4953490;29;20027;-26
2024/01/19 01:48:38;;;;;;;20.88;12.10;;;;;;;9.54;100.00;98611.31;4936094;29;20488;-26
2024/01/19 01:51:04;;;;;;;20.23;12.25;;;;;;;9.54;100.00;98617.41;4953068;29;20027;-26
2024/01/19 01:53:30;;;;;;;21.20;13.85;;;;;;;9.53;100.00;98614.97;4953114;29;20518;-26
2024/01/19 01:55:56;;;;;;;22.02;13.50;;;;;;;9.35;100.00;98608.66;4953266;29;20027;-26
2024/01/19 01:58:22;;;;;;;19.42;12.38;;;;;;;9.38;100.00;98618.03;4953200;29;20039;-26
2024/01/19 02:00:48;;;;;;;19.38;12.15;;;;;;;9.35;100.00;98608.66;4952850;29;20046;-25
2024/01/19 02:03:14;;;;;;;18.65;12.25;;;;;;;9.11;100.00;98607.72;4953132;29;20023;-25
2024/01/19 02:05:39;;;;;;;20.35;12.90;;;;;;;9.16;100.00;98607.88;4952928;29;20038;-26
2024/01/19 02:08:05;;;;;;;18.55;11.82;;;;;;;9.16;100.00;98609.72;4953362;29;20125;-26
2024/01/19 02:10:31;;;;;;;18.35;11.93;;;;;;;8.98;99.83;98613.16;4953257;29;20499;-26
2024/01/19 02:12:57;;;;;;;21.15;11.70;;;;;;;8.78;100.00;98613.38;4952915;29;20042;-26
2024/01/19 02:15:24;;;;;;;17.95;11.68;;;;;;;8.80;100.00;98617.44;4953420;29;20027;-26
2024/01/19 02:17:50;;;;;;;20.05;12.18;;;;;;;8.66;100.00;98618.56;4953612;29;20054;-26
2024/01/19 02:20:16;;;;;;;19.60;11.63;;;;;;;8.52;100.00;98627.69;4953666;29;20026;-26
2024/01/19 02:22:46;;;;;;;20.40;13.95;;;;;;;8.55;100.00;98637.88;4953533;29;20034;-26
2024/01/19 02:25:12;;;;;;;;;;;;;;;8.47;100.00;98648.72;4953766;29;20038;-26
2024/01/19 02:27:37;;;;;;;24.20;15.23;;;;;;;8.60;100.00;98641.50;4953366;29;19914;-26
2024/01/19 02:30:07;;;;;;;21.83;13.45;;;;;;;8.47;100.00;98644.22;4953075;29;20062;-26
2024/01/19 02:32:32;;;;;;;25.42;14.13;;;;;;;8.92;100.00;98638.75;4953165;29;20062;-26
2024/01/19 02:34:58;;;;;;;24.38;14.40;;;;;;;8.65;100.00;98646.13;4952665;28;20131;-26
2024/01/19 02:37:23;;;;;;;25.70;15.52;;;;;;;8.83;100.00;98655.97;4953202;29;20063;-26
2024/01/19 02:39:49;;;;;;;25.77;15.88;;;;;;;8.51;100.00;98656.06;4953279;29;20163;-26
2024/01/19 02:42:14;;;;;;;24.83;15.68;;;;;;;8.55;100.00;98651.13;4953134;29;20058;-26
2024/01/19 02:44:40;;;;;;;26.50;16.50;;;;;;;8.56;100.00;98642.13;4952978;29;20125;-26
2024/01/19 02:47:05;;;;;;;29.05;16.50;;;;;;;8.61;100.00;98658.22;4953157;29;20031;-26
2024/01/19 02:49:31;;;;;;;28.00;17.35;;;;;;;8.78;100.00;98663.78;4952998;29;20027;-26
2024/01/19 02:51:56;;;;;;;28.77;16.65;;;;;;;8.82;100.00;98670.28;4953059;29;20027;-26
2024/01/19 02:54:22;;;;;;;27.98;16.80;;;;;;;8.61;100.00;98666.16;4952900;29;20023;-26
2024/01/19 02:56:47;;;;;;;27.25;16.83;;;;;;;8.48;100.00;98668.94;4952956;29;20031;-26
2024/01/19 02:59:12;;;;;;;29.83;17.75;;;;;;;8.45;100.00;98672.00;4953065;29;20428;-26
2024/01/19 03:01:38;;;;;;;28.00;16.38;;;;;;;8.53;100.00;98669.06;4953243;29;20023;-26
2024/01/19 03:04:03;;;;;;;31.55;17.88;;;;;;;8.32;100.00;98662.25;4953075;29;20032;-26
2024/01/19 03:06:29;;;;;;;28.55;17.02;;;;;;;8.46;100.00;98677.09;4953063;29;20031;-26
2024/01/19 03:08:54;;;;;;;34.25;20.23;;;;;;;8.17;100.00;98684.59;4953004;29;20031;-26
2024/01/19 03:11:19;;;;;;;29.10;17.27;;;;;;;8.13;100.00;98688.72;4952790;29;20028;-26
2024/01/19 03:13:45;;;;;;;32.13;17.98;;;;;;;8.08;100.00;98685.06;4952785;29;20035;-26
2024/01/19 03:16:10;;;;;;;25.35;16.10;;;;;;;8.16;100.00;98684.81;4952891;29;20027;-26
2024/01/19 03:18:35;;;;;;;27.17;15.98;;;;;;;8.15;100.00;98694.59;4952840;29;20027;-26
2024/01/19 03:21:01;;;;;;;31.58;17.10;;;;;;;8.37;100.00;98686.31;4953008;29;20416;-26
2024/01/19 03:23:26;;;;;;;31.10;17.95;;;;;;;8.30;100.00;98690.84;4952867;29;20035;-26
2024/01/19 03:25:51;;;;;;;31.67;17.83;;;;;;;8.12;100.00;98702.97;4952612;29;20066;-26
2024/01/19 03:28:17;;;;;;;33.55;18.58;;;;;;;8.13;100.00;98691.34;4952742;29;20047;-26
2024/01/19 03:30:42;;;;;;;34.40;18.98;;;;;;;8.21;100.00;98703.53;4952763;29;20057;-26
2024/01/19 03:33:08;;;;;;;32.88;18.33;;;;;;;8.32;100.00;98707.34;4952418;29;20379;-26
2024/01/19 03:35:33;;;;;;;28.33;17.17;;;;;;;8.35;100.00;98698.97;4952550;29;20027;-26
2024/01/19 03:37:59;;;;;;;33.72;18.98;;;;;;;8.30;100.00;98693.47;4953078;29;20035;-26
2024/01/19 03:40:24;;;;;;;29.60;17.52;;;;;;;8.44;100.00;98686.31;4952641;29;20031;-26
2024/01/19 03:42:49;;;;;;;29.75;18.08;;;;;;;8.43;100.00;98685.47;4952743;29;20064;-26
2024/01/19 03:45:15;;;;;;;32.08;18.90;;;;;;;8.16;100.00;98690.13;4952434;29;20036;-26
2024/01/19 03:47:41;;;;;;;30.23;17.73;;;;;;;8.23;100.00;98686.38;4955486;28;20038;-26
2024/01/19 03:50:08;;;;;;;27.25;17.00;;;;;;;8.23;100.00;98678.44;4955921;29;20464;-26
2024/01/19 03:52:34;;;;;;;27.83;17.63;;;;;;;8.37;100.00;98673.03;4956039;29;20055;-26
2024/01/19 03:55:00;;;;;;;28.80;17.83;;;;;;;8.29;100.00;98675.97;4956027;29;20468;-26
2024/01/19 03:57:26;;;;;;;28.67;17.85;;;;;;;8.22;100.00;98674.19;4955561;29;20035;-26
2024/01/19 03:59:51;;;;;;;30.10;18.23;;;;;;;8.24;100.00;98671.28;4956121;29;20058;-26
2024/01/19 04:02:16;;;;;;;31.20;17.85;;;;;;;8.24;100.00;98671.28;4947379;29;20232;-26
2024/01/19 04:04:42;;;;;;;33.35;18.13;;;;;;;8.09;100.00;98674.28;4955055;29;20023;-26
2024/01/19 04:07:07;;;;;;;32.88;18.25;;;;;;;8.43;100.00;98664.25;4939469;29;20469;-26
2024/01/19 04:09:32;;;;;;;33.60;18.45;;;;;;;8.61;100.00;98664.31;4926473;29;20027;-27
2024/01/19 04:11:58;;;;;;;34.15;20.13;;;;;;;8.64;100.00;98652.47;4941683;29;20119;-26
2024/01/19 04:14:24;;;;;;;36.72;21.15;;;;;;;8.88;99.20;98664.09;4944231;29;20023;-26
2024/01/19 04:16:49;;;;;;;36.00;20.30;;;;;;;8.27;100.00;98667.41;4948040;29;20417;-26
2024/01/19 04:19:14;;;;;;;35.10;20.38;;;;;;;8.25;100.00;98662.34;4923116;29;20031;-26
2024/01/19 04:21:40;;;;;;;38.33;22.48;;;;;;;8.17;100.00;98665.25;4945004;29;20517;-26
2024/01/19 04:24:05;;;;;;;39.08;21.00;;;;;;;8.14;100.00;98676.25;4947010;29;20031;-26
2024/01/19 04:26:31;;;;;;;35.63;20.55;;;;;;;8.12;100.00;98678.31;4949689;29;20465;-26
2024/01/19 04:28:56;;;;;;;35.33;20.60;;;;;;;8.18;100.00;98678.25;4947296;29;20027;-26
2024/01/19 04:31:22;;;;;;;36.55;21.73;;;;;;;7.95;100.00;98673.50;4955554;29;20055;-26
2024/01/19 04:33:47;;;;;;;40.90;22.17;;;;;;;7.88;100.00;98674.56;4955425;29;20035;-26
2024/01/19 04:36:13;;;;;;;35.08;21.25;;;;;;;7.73;100.00;98670.38;4955665;29;20365;-26
2024/01/19 04:38:38;;;;;;;35.53;20.48;;;;;;;7.59;100.00;98663.50;4955416;29;20031;-26
2024/01/19 04:41:04;;;;;;;37.38;20.40;;;;;;;7.68;100.00;98666.75;4955196;29;20027;-26
2024/01/19 04:43:30;;;;;;;37.40;22.45;;;;;;;7.72;100.00;98678.53;4954920;29;20031;-26
2024/01/19 04:45:55;;;;;;;38.00;23.45;;;;;;;7.58;100.00;98680.44;4955239;29;20086;-25
2024/01/19 04:48:21;;;;;;;39.15;22.98;;;;;;;7.46;100.00;98682.09;4955434;29;20072;-26
2024/01/19 04:50:47;;;;;;;37.78;22.15;;;;;;;7.35;100.00;98684.38;4955128;29;20023;-27
2024/01/19 04:53:12;;;;;;;37.72;21.83;;;;;;;7.52;100.00;98687.38;4954882;29;20049;-27
2024/01/19 04:55:37;;;;;;;44.63;24.27;;;;;;;7.70;100.00;98694.63;4954731;29;20094;-27
2024/01/19 04:58:03;;;;;;;39.97;23.42;;;;;;;7.74;100.00;98703.78;4952287;28;20023;-27
2024/01/19 05:00:28;;;;;;;39.85;22.38;;;;;;;7.61;100.00;98709.91;4954452;29;20038;-26
2024/01/19 05:02:54;;;;;;;39.47;22.83;;;;;;;7.82;100.00;98698.25;4954401;29;20495;-27
2024/01/19 05:05:19;;;;;;;38.95;20.98;;;;;;;7.50;100.00;98710.59;4954512;29;20047;-27
2024/01/19 05:07:45;;;;;;;36.67;21.80;;;;;;;7.59;100.00;98697.91;4954219;29;20070;-27
2024/01/19 05:10:10;;;;;;;41.20;22.58;;;;;;;7.56;100.00;98707.09;4954048;29;20042;-26
2024/01/19 05:12:36;;;;;;;43.47;24.77;;;;;;;7.48;100.00;98707.31;4954119;29;20034;-26
2024/01/19 05:15:02;;;;;;;41.88;23.67;;;;;;;7.55;100.00;98715.25;4954242;29;20062;-26
2024/01/19 05:17:27;;;;;;;41.10;23.30;;;;;;;7.49;100.00;98716.09;4953390;29;20109;-27
2024/01/19 05:19:54;;;;;;;37.88;22.05;;;;;;;7.31;100.00;98706.97;4953025;29;20480;-27
2024/01/19 05:22:19;;;;;;;50.28;29.02;;;;;;;7.35;100.00;98710.00;4954648;29;20035;-27
2024/01/19 05:24:45;;;;;;;61.97;33.45;;;;;;;7.46;100.00;98722.59;4954199;29;20034;-27
2024/01/19 05:27:11;;;;;;;52.67;28.15;;;;;;;7.30;100.00;98723.88;4954527;29;20035;-27
2024/01/19 05:29:37;;;;;;;44.92;25.23;;;;;;;7.70;100.00;98715.81;4954608;29;20115;-26
2024/01/19 05:32:03;;;;;;;40.15;23.00;;;;;;;7.67;100.00;98726.81;4953858;29;20083;-26
2024/01/19 05:34:28;;;;;;;42.63;23.20;;;;;;;7.33;100.00;98722.63;4954094;29;20495;-27
2024/01/19 05:36:54;;;;;;;43.28;20.55;;;;;;;7.17;100.00;98747.72;4954482;29;20032;-26
2024/01/19 05:39:19;;;;;;;42.70;21.27;;;;;;;7.14;100.00;98733.06;4953980;29;20027;-26
2024/01/19 05:41:45;;;;;;;50.47;23.48;;;;;;;7.00;100.00;98739.38;4953466;29;20078;-28
2024/01/19 05:44:10;;;;;;;38.55;21.02;;;;;;;7.19;100.00;98753.59;4952675;29;20031;-27
2024/01/19 05:46:35;;;;;;;45.58;22.65;;;;;;;7.04;100.00;98744.06;4953642;29;20059;-27
2024/01/19 05:49:01;;;;;;;45.55;24.23;;;;;;;6.86;100.00;98743.88;4952283;29;20031;-26
2024/01/19 05:51:26;;;;;;;56.95;29.30;;;;;;;6.89;100.00;98748.72;4952227;29;20169;-37
2024/01/19 05:53:51;;;;;;;52.90;27.77;;;;;;;6.75;100.00;98758.50;4952863;29;20090;-40
2024/01/19 05:56:17;;;;;;;53.40;24.88;;;;;;;6.91;100.00;98774.97;4953331;29;20416;-39
2024/01/19 05:58:43;;;;;;;71.53;27.83;;;;;;;6.79;100.00;98780.06;4953705;29;20110;-38
2024/01/19 06:01:08;;;;;;;71.07;26.83;;;;;;;7.01;100.00;98778.84;4953502;29;20050;-37
2024/01/19 06:03:34;;;;;;;47.22;25.98;;;;;;;6.95;100.00;98765.63;4953489;29;20484;-37
2024/01/19 06:06:00;;;;;;;45.65;24.65;;;;;;;6.88;100.00;98764.81;4953231;29;20059;-39
2024/01/19 06:08:26;;;;;;;50.45;24.80;;;;;;;6.63;100.00;98776.00;4949498;29;20058;-39
2024/01/19 06:10:51;;;;;;;68.88;25.52;;;;;;;6.68;100.00;98786.75;4953721;28;20523;-39
2024/01/19 06:13:16;;;;;;;66.30;26.80;;;;;;;6.87;100.00;98781.69;4953919;29;20134;-37
2024/01/19 06:15:42;;;;;;;60.78;27.42;;;;;;;7.00;100.00;98771.94;4952935;29;20548;-36
2024/01/19 06:18:07;;;;;;;68.80;29.45;;;;;;;6.89;100.00;98780.47;4953309;29;20114;-40
2024/01/19 06:20:34;;;;;;;59.58;27.35;;;;;;;6.97;100.00;98779.47;4953069;29;20593;-37
2024/01/19 06:22:59;;;;;;;65.72;29.00;;;;;;;6.80;100.00;98771.94;4953051;29;20042;-39
2024/01/19 06:25:25;;;;;;;82.80;37.90;;;;;;;6.85;100.00;98777.44;4953231;29;20034;-39
2024/01/19 06:27:50;;;;;;;83.00;37.97;;;;;;;6.73;100.00;98775.59;4952793;29;20499;-39
2024/01/19 06:30:16;;;;;;;112.93;43.72;;;;;;;6.91;100.00;98772.34;4952442;29;20086;-38
2024/01/19 06:32:41;;;;;;;78.50;36.03;;;;;;;7.01;100.00;98764.81;4952347;29;20051;-39
2024/01/19 06:35:07;;;;;;;81.90;33.95;;;;;;;6.95;100.00;98766.47;4952833;29;20483;-37
2024/01/19 06:37:33;;;;;;;100.15;33.90;;;;;;;6.97;100.00;98767.06;4953033;29;20041;-42
2024/01/19 06:39:58;;;;;;;69.85;30.25;;;;;;;7.24;100.00;98772.34;4952774;29;20123;-37
2024/01/19 06:42:24;;;;;;;104.32;35.83;;;;;;;7.36;100.00;98785.75;4952750;29;20118;-38
2024/01/19 06:44:49;;;;;;;76.28;29.15;;;;;;;7.12;100.00;98800.41;4952796;29;20115;-39
2024/01/19 06:47:18;;;;;;;59.03;28.83;;;;;;;7.16;100.00;98791.03;4953074;29;20019;-39
2024/01/19 06:49:44;;;;;;;55.25;27.83;;;;;;;7.15;100.00;98807.97;4952907;29;20563;-38
2024/01/19 06:52:09;;;;;;;45.10;24.92;;;;;;;7.42;100.00;98806.94;4953123;29;20035;-39
2024/01/19 06:54:34;;;;;;;49.03;23.55;;;;;;;7.55;100.00;98811.38;4952972;29;20027;-38
2024/01/19 06:57:01;;;;;;;48.65;26.25;;;;;;;7.51;100.00;98823.41;4953028;29;20097;-38
2024/01/19 06:59:26;;;;;;;61.28;29.90;;;;;;;7.67;100.00;98811.53;4952764;29;20454;-41
2024/01/19 07:01:51;;;;;;;68.07;29.90;;;;;;;8.11;100.00;98802.06;4953184;29;20110;-44
2024/01/19 07:04:17;;;;;;;53.25;27.70;;;;;;;8.37;100.00;98797.66;4952989;29;20475;-41
2024/01/19 07:06:42;;;;;;;47.85;26.25;;;;;;;8.59;99.75;98804.28;4952739;29;20404;-40
2024/01/19 07:09:08;;;;;;;44.30;24.40;;;;;;;8.67;98.46;98811.19;4952789;29;20086;-37
2024/01/19 07:11:35;;;;;;;45.30;26.10;;;;;;;9.03;98.39;98806.25;4952964;29;20368;-38
2024/01/19 07:14:00;;;;;;;45.05;25.25;;;;;;;9.26;97.13;98811.75;4952862;29;20058;-39
2024/01/19 07:16:25;;;;;;;42.95;24.38;;;;;;;9.45;96.90;98806.50;4952954;29;20063;-38
2024/01/19 07:18:51;;;;;;;39.05;22.90;;;;;;;9.84;94.21;98805.25;4952710;29;20031;-39
2024/01/19 07:21:16;;;;;;;36.15;22.45;;;;;;;10.20;94.46;98816.13;4953060;28;20038;-42
2024/01/19 07:23:42;;;;;;;43.17;25.35;;;;;;;11.10;92.25;98812.59;4956618;29;20050;-40
2024/01/19 07:26:07;;;;;;;37.38;22.45;;;;;;;10.68;90.78;98809.97;4955934;29;20020;-39
2024/01/19 07:28:32;;;;;;;37.65;22.48;;;;;;;10.69;92.57;98799.09;4956157;29;20062;-37
2024/01/19 07:30:58;;;;;;;38.92;22.58;;;;;;;10.64;93.86;98801.66;4956119;29;20083;-36
2024/01/19 07:33:24;;;;;;;37.97;23.02;;;;;;;11.03;92.26;98796.75;4956359;29;20090;-38
2024/01/19 07:35:49;;;;;;;38.75;22.60;;;;;;;11.30;90.83;98791.78;4956326;29;20070;-39
2024/01/19 07:38:14;;;;;;;28.30;18.92;;;;;;;11.45;88.35;98787.88;4956017;29;20028;-38
2024/01/19 07:40:40;;;;;;;32.15;19.98;;;;;;;11.42;87.41;98798.97;4956072;29;20134;-40
2024/01/19 07:43:05;;;;;;;33.13;20.38;;;;;;;11.91;85.91;98802.22;4955903;29;20042;-39
2024/01/19 07:45:30;;;;;;;32.70;21.05;;;;;;;12.08;84.90;98796.97;4955838;29;20118;-38
2024/01/19 07:47:56;;;;;;;32.92;20.80;;;;;;;11.88;86.37;98786.63;4956217;29;20062;-39
2024/01/19 07:50:22;;;;;;;35.33;21.10;;;;;;;12.18;85.12;98791.00;4955829;29;20027;-41
2024/01/19 07:52:47;;;;;;;35.70;21.33;;;;;;;12.65;84.27;98780.16;4955834;29;20483;-39
2024/01/19 07:55:13;;;;;;;30.75;19.92;;;;;;;12.88;80.38;98777.34;4955784;29;20155;-36
2024/01/19 07:57:39;;;;;;;33.67;19.30;;;;;;;12.76;80.31;98767.78;4956152;29;20027;-39
2024/01/19 08:00:05;;;;;;;30.20;18.42;;;;;;;12.98;80.30;98773.22;4955904;29;20561;-39
2024/01/19 08:02:30;;;;;;;32.95;18.13;;;;;;;13.05;82.16;98784.56;4955943;29;20049;-37
2024/01/19 08:04:55;;;;;;;28.20;18.33;;;;;;;13.50;78.69;98786.34;4955482;29;20093;-40
2024/01/19 08:07:21;;;;;;;28.77;17.95;;;;;;;14.01;78.77;98794.19;4955490;29;20050;-38
2024/01/19 08:09:46;;;;;;;30.00;17.65;;;;;;;14.01;78.92;98797.72;4955692;29;20023;-41
2024/01/19 08:12:12;;;;;;;31.83;17.05;;;;;;;13.69;79.55;98793.00;4955795;29;20054;-39
2024/01/19 08:14:37;;;;;;;27.38;15.82;;;;;;;13.71;79.53;98800.78;4955632;29;20077;-40
2024/01/19 08:17:02;;;;;;;28.35;16.00;;;;;;;13.89;79.13;98805.03;4955425;29;20047;-40
2024/01/19 08:19:28;;;;;;;26.27;15.95;;;;;;;13.69;79.02;98808.25;4955359;29;20026;-37
2024/01/19 08:21:53;;;;;;;31.65;15.85;;;;;;;13.95;79.12;98812.06;4955259;29;20055;-37
2024/01/19 08:24:19;;;;;;;28.67;16.50;;;;;;;13.98;78.78;98824.13;4955280;29;20356;-41
2024/01/19 08:26:44;;;;;;;26.83;16.27;;;;;;;14.42;76.11;98827.59;4954943;29;20043;-40
2024/01/19 08:29:09;;;;;;;31.10;16.15;;;;;;;14.42;75.77;98829.47;4955234;29;20035;-40
2024/01/19 08:31:35;;;;;;;24.48;15.57;;;;;;;14.57;74.09;98826.19;4955195;29;20054;-37
2024/01/19 08:34:00;;;;;;;24.25;15.48;;;;;;;14.08;75.03;98833.09;4953884;28;20027;-39
2024/01/19 08:36:25;;;;;;;27.42;16.33;;;;;;;14.21;76.28;98833.78;4955195;29;20526;-39
2024/01/19 08:38:51;;;;;;;26.58;16.00;;;;;;;14.66;74.39;98836.19;4954818;29;20027;-39
2024/01/19 08:41:17;;;;;;;25.77;16.48;;;;;;;14.97;73.86;98846.41;4955111;29;20496;-38
2024/01/19 08:43:42;;;;;;;25.60;15.82;;;;;;;15.22;69.99;98835.91;4954843;29;20118;-40
2024/01/19 08:46:08;;;;;;;25.35;16.35;;;;;;;15.04;70.60;98834.41;4954930;29;20031;-37
2024/01/19 08:48:33;;;;;;;24.30;15.98;;;;;;;15.00;72.15;98830.63;4954878;29;20027;-40
2024/01/19 08:50:59;;;;;;;22.27;14.52;;;;;;;15.23;71.37;98834.84;4954729;29;20062;-41
2024/01/19 08:53:24;;;;;;;22.80;14.50;;;;;;;15.37;70.87;98826.38;4954819;29;20049;-43
2024/01/19 08:55:50;;;;;;;21.38;14.45;;;;;;;15.79;69.10;98821.03;4954934;29;20031;-41
2024/01/19 08:58:16;;;;;;;25.77;15.80;;;;;;;15.86;70.35;98820.81;4954894;29;20035;-40
2024/01/19 09:00:42;;;;;;;25.75;15.50;;;;;;;15.98;69.43;98820.59;4954670;29;20051;-41
2024/01/19 09:03:08;;;;;;;22.58;15.15;;;;;;;15.93;69.13;98818.69;4954520;29;20035;-40
2024/01/19 09:05:34;;;;;;;23.48;14.02;;;;;;;16.11;68.22;98825.47;4954146;29;20468;-41
2024/01/19 09:08:00;;;;;;;22.52;15.18;;;;;;;15.93;68.93;98832.09;4954054;29;20490;-41
2024/01/19 09:10:25;;;;;;;26.90;15.60;;;;;;;15.79;68.29;98825.59;4954127;29;20045;-45
2024/01/19 09:12:51;;;;;;;26.52;15.52;;;;;;;15.91;68.98;98828.88;4954258;29;20027;-43
2024/01/19 09:15:16;;;;;;;27.08;15.57;;;;;;;16.10;68.33;98823.06;4954214;29;20062;-40
2024/01/19 09:17:42;;;;;;;21.23;14.65;;;;;;;16.27;67.52;98817.50;4954103;29;20030;-42
2024/01/19 09:20:08;;;;;;;30.77;15.85;;;;;;;16.33;68.18;98822.59;4954209;29;20385;-41
2024/01/19 09:22:33;;;;;;;27.90;14.77;;;;;;;16.26;67.46;98824.75;4953842;29;20090;-40
2024/01/19 09:24:58;;;;;;;20.52;13.43;;;;;;;16.26;67.60;98830.09;4953773;29;20028;-42
2024/01/19 09:27:24;;;;;;;16.83;11.60;;;;;;;16.65;65.88;98823.50;4953653;29;20058;-39
2024/01/19 09:29:49;;;;;;;15.18;9.93;;;;;;;17.05;63.95;98828.16;4954158;29;20073;-41
2024/01/19 09:32:16;;;;;;;14.23;9.23;;;;;;;17.03;65.46;98811.47;4953950;29;20062;-41
2024/01/19 09:34:44;;;;;;;15.77;9.18;;;;;;;17.07;64.96;98809.06;4953891;29;20102;-42
2024/01/19 09:37:09;;;;;;;12.77;8.55;;;;;;;16.91;65.45;98816.31;4953959;29;20109;-37
2024/01/19 09:39:34;;;;;;;14.57;7.95;;;;;;;17.48;62.35;98809.06;4953715;29;20499;-40
2024/01/19 09:42:03;;;;;;;11.52;7.50;;;;;;;17.45;62.77;98806.91;4953827;29;20517;-38
2024/01/19 09:44:35;;;;;;;17.13;7.80;;;;;;;17.51;62.82;98803.91;4953453;28;20042;-40
2024/01/19 09:47:01;;;;;;;13.05;8.10;;;;;;;17.59;61.71;98794.47;4953748;29;20495;-39
2024/01/19 09:49:58;;;;;;;12.48;7.85;;;;;;;17.81;60.92;98790.69;4953687;29;20031;-37
2024/01/19 09:52:59;;;;;;;12.73;7.65;;;;;;;17.57;61.68;98781.31;4953335;29;20089;-39
2024/01/19 09:55:26;;;;;;;13.38;8.07;;;;;;;17.30;62.12;98778.13;4953317;29;20043;-38
2024/01/19 09:57:52;;;;;;;11.02;7.80;;;;;;;17.21;62.88;98777.91;4953426;29;20031;-40
2024/01/19 10:00:19;;;;;;;13.68;8.30;;;;;;;17.51;62.03;98770.84;4953470;29;20035;-41
2024/01/19 10:02:49;;;;;;;14.05;8.32;;;;;;;17.74;59.48;98777.50;4953495;29;20495;-40
2024/01/19 10:05:17;;;;;;;11.85;8.13;;;;;;;17.63;60.44;98770.53;4953298;29;20095;-40
2024/01/19 10:07:48;;;;;;;15.13;8.60;;;;;;;17.57;62.08;98773.25;4953293;29;20089;-38
2024/01/19 10:10:15;;;;;;;14.90;8.65;;;;;;;17.23;62.90;98766.84;4953037;29;20035;-40
2024/01/19 10:12:41;;;;;;;14.55;8.68;;;;;;;17.33;61.98;98759.59;4952871;29;20463;-37
2024/01/19 10:15:11;;;;;;;17.02;8.52;;;;;;;17.54;61.61;98756.84;4953387;29;20035;-37
2024/01/19 10:17:37;;;;;;;11.70;8.65;;;;;;;17.63;60.34;98757.09;4953142;29;20051;-39
2024/01/19 10:20:03;;;;;;;11.48;8.10;;;;;;;17.97;59.41;98757.25;4952955;29;20515;-38
2024/01/19 10:22:29;;;;;;;14.63;8.45;;;;;;;17.73;60.14;98762.44;4953146;29;20042;-39
2024/01/19 10:25:08;;;;;;;15.23;9.32;;;;;;;17.67;61.95;98764.34;4952767;29;20488;-39
2024/01/19 10:27:47;;;;;;;22.10;14.40;;;;;;;17.72;64.35;98758.13;4952489;29;20031;-38
2024/01/19 10:30:16;;;;;;;25.08;16.52;;;;;;;17.81;65.68;98764.56;4952862;29;20055;-38
2024/01/19 10:32:44;;;;;;;24.77;15.87;;;;;;;17.69;65.65;98751.44;4952765;29;20082;-40
2024/01/19 10:35:10;;;;;;;24.00;15.45;;;;;;;17.56;66.41;98746.63;4952354;29;20608;-40
2024/01/19 10:37:36;;;;;;;20.38;13.60;;;;;;;17.70;65.15;98744.94;4952548;29;20031;-38
2024/01/19 10:40:32;;;;;;;19.90;12.57;;;;;;;18.12;63.51;98741.03;4953262;29;20122;-41
2024/01/19 10:42:58;;;;;;;17.77;10.45;;;;;;;18.21;61.80;98737.78;4932985;29;20054;-41
2024/01/19 10:45:29;;;;;;;15.25;9.43;;;;;;;18.17;59.90;98741.00;4952833;29;20035;-43
2024/01/19 10:47:57;;;;;;;17.15;8.23;;;;;;;18.37;58.77;98747.34;4952922;29;20098;-45
2024/01/19 10:50:26;;;;;;;18.02;11.02;;;;;;;17.98;61.91;98734.66;4952826;29;20520;-39
2024/01/19 10:52:53;;;;;;;27.23;15.50;;;;;;;18.23;65.02;98735.59;4952997;29;20039;-42
2024/01/19 10:55:22;;;;;;;42.22;15.90;;;;;;;18.64;63.59;98727.25;4952700;28;20027;-39
2024/01/19 10:57:51;;;;;;;26.20;15.25;;;;;;;18.39;63.96;98728.22;4956215;29;20411;-39
2024/01/19 11:00:22;;;;;;;21.02;14.95;;;;;;;18.47;64.50;98724.97;4956944;29;20123;-41
2024/01/19 11:02:49;;;;;;;24.58;13.88;;;;;;;18.71;63.04;98725.84;4956765;29;20504;-40
2024/01/19 11:05:21;;;;;;;21.83;13.50;;;;;;;18.73;61.88;98726.38;4956802;29;20031;-40
2024/01/19 11:07:54;;;;;;;22.52;12.50;;;;;;;18.29;62.48;98716.44;4956654;29;20039;-41
2024/01/19 11:10:21;;;;;;;22.90;12.85;;;;;;;18.50;62.02;98710.91;4956952;29;20047;-42
2024/01/19 11:12:51;;;;;;;26.50;13.32;;;;;;;18.64;61.83;98705.69;4956692;29;20054;-38
2024/01/19 11:15:28;;;;;;;21.75;13.55;;;;;;;18.80;62.30;98699.13;4956315;29;20023;-40